Time;durP1;ratioP1;P1;durP2;ratioP2;P2;SDS_P1;SDS_P2;PMS_P1;PMS_P2;Temp;Humidity;BMP_temperature;BMP_pressure;BME280_temperature;BME280_humidity;BME280_pressure;Samples;Min_cycle;Max_cycle;Signal;HPM_P1;HPM_P2
2023/10/21 00:01:48;;;;;;;22.67;7.20;;;;;;;20.89;52.58;97332.28;4443900;32;33813;-88
2023/10/21 00:04:15;;;;;;;22.10;6.82;;;;;;;21.05;52.20;97321.69;4465827;32;34833;-88
2023/10/21 00:06:43;;;;;;;19.40;6.65;;;;;;;21.10;52.55;97309.09;4460563;32;33671;-89
2023/10/21 00:09:10;;;;;;;18.42;7.20;;;;;;;21.17;54.09;97321.88;4450287;32;34722;-89
2023/10/21 00:11:38;;;;;;;28.92;7.55;;;;;;;21.07;53.32;97321.59;4449543;32;34282;-88
2023/10/21 00:14:06;;;;;;;23.02;7.07;;;;;;;21.03;53.29;97333.25;4449698;32;34209;-89
2023/10/21 00:16:34;;;;;;;20.65;7.32;;;;;;;21.09;52.54;97327.63;4450317;32;33569;-89
2023/10/21 00:19:03;;;;;;;22.80;7.28;;;;;;;20.98;53.04;97332.66;4450176;32;34835;-89
2023/10/21 00:21:30;;;;;;;27.20;6.80;;;;;;;21.02;53.09;97337.66;4438972;32;33743;-90
2023/10/21 00:23:58;;;;;;;25.17;6.35;;;;;;;21.13;52.21;97334.41;4434977;32;34019;-88
2023/10/21 00:26:26;;;;;;;27.77;7.20;;;;;;;21.01;51.94;97341.25;4434715;32;33796;-89
2023/10/21 00:28:54;;;;;;;23.85;6.80;;;;;;;21.14;51.63;97326.41;4436346;32;33850;-86
2023/10/21 00:31:22;;;;;;;23.75;6.62;;;;;;;21.07;52.63;97325.09;4446497;32;33780;-89
2023/10/21 00:33:49;;;;;;;23.12;6.50;;;;;;;20.96;53.33;97331.91;4443070;32;34185;-87
2023/10/21 00:36:17;;;;;;;17.62;6.60;;;;;;;20.99;53.63;97329.97;4466670;32;33555;-89
2023/10/21 00:38:45;;;;;;;13.70;6.25;;;;;;;21.16;53.69;97321.03;4463205;32;34387;-89
2023/10/21 00:41:13;;;;;;;20.02;6.97;;;;;;;20.97;54.17;97329.19;4451094;32;34701;-89
2023/10/21 00:43:42;;;;;;;23.45;7.25;;;;;;;20.96;54.89;97342.47;4452206;32;34324;-90
2023/10/21 00:46:10;;;;;;;21.52;6.93;;;;;;;20.97;54.31;97354.69;4449608;32;33828;-89
2023/10/21 00:48:39;;;;;;;20.50;6.20;;;;;;;20.85;54.72;97361.50;4442334;32;33651;-88
2023/10/21 00:51:08;;;;;;;24.63;7.57;;;;;;;20.75;55.28;97357.69;4451710;32;34045;-89
2023/10/21 00:53:36;;;;;;;21.98;7.85;;;;;;;20.67;55.85;97352.88;4426287;32;35075;-89
2023/10/21 00:56:05;;;;;;;25.12;6.35;;;;;;;20.68;55.58;97358.97;4445564;32;33518;-89
2023/10/21 00:58:34;;;;;;;21.10;7.47;;;;;;;20.50;56.48;97360.91;4423114;32;33760;-89
2023/10/21 01:01:06;;;;;;;22.27;7.72;;;;;;;20.60;56.01;97370.78;4422872;32;34154;-88
2023/10/21 01:03:35;;;;;;;21.75;7.37;;;;;;;20.65;55.81;97373.19;4436547;32;34298;-89
2023/10/21 01:06:03;;;;;;;20.73;6.80;;;;;;;20.53;56.40;97376.50;4423143;32;34113;-89
2023/10/21 01:08:39;;;;;;;21.65;7.28;;;;;;;20.60;55.93;97367.31;4436619;32;34707;-88
2023/10/21 01:11:07;;;;;;;;;;;;;;;20.54;56.10;97370.31;4450229;32;34147;-87
2023/10/21 01:13:34;;;;;;;23.27;7.00;;;;;;;20.72;56.15;97369.28;4437660;32;34630;-90
2023/10/21 01:16:02;;;;;;;22.05;7.80;;;;;;;20.55;56.43;97377.28;4431129;32;34395;-87
2023/10/21 01:18:33;;;;;;;21.50;6.60;;;;;;;20.70;55.91;97379.03;4436742;32;33946;-86
2023/10/21 01:21:02;;;;;;;26.52;7.57;;;;;;;20.50;54.58;97366.16;4436578;32;35028;-89
2023/10/21 01:23:32;;;;;;;28.05;7.35;;;;;;;20.59;54.25;97361.22;4436388;32;34171;-90
2023/10/21 01:26:00;;;;;;;22.45;7.45;;;;;;;20.68;54.34;97369.50;4436201;32;33262;-89
2023/10/21 01:28:28;;;;;;;23.45;6.62;;;;;;;20.93;52.63;97366.34;4422465;32;34657;-89
2023/10/21 01:30:56;;;;;;;21.45;6.82;;;;;;;20.92;53.10;97369.91;4436253;32;33860;-89
2023/10/21 01:33:24;;;;;;;28.55;7.75;;;;;;;20.93;54.51;97368.97;4436467;32;34072;-88
2023/10/21 01:35:52;;;;;;;20.65;6.65;;;;;;;20.71;54.73;97378.09;4436129;32;34447;-88
2023/10/21 01:38:20;;;;;;;25.92;7.22;;;;;;;20.77;54.91;97385.66;4422176;32;34990;-87
2023/10/21 01:40:49;;;;;;;21.87;6.85;;;;;;;20.70;54.64;97383.47;4437704;32;33696;-89
2023/10/21 01:43:17;;;;;;;22.05;6.60;;;;;;;20.61;54.56;97379.56;4456804;32;34849;-86
2023/10/21 01:45:45;;;;;;;24.05;7.07;;;;;;;20.78;54.41;97382.06;4446764;32;34134;-92
2023/10/21 01:48:12;;;;;;;23.77;6.68;;;;;;;20.72;55.11;97369.28;4448851;32;33949;-91
2023/10/21 01:50:40;;;;;;;23.38;7.40;;;;;;;20.57;55.62;97367.47;4442535;32;34853;-91
2023/10/21 01:53:08;;;;;;;25.90;6.87;;;;;;;20.67;55.86;97376.56;4436497;32;34196;-92
2023/10/21 01:55:36;;;;;;;19.92;6.90;;;;;;;20.59;56.05;97389.31;4436521;32;33118;-92
2023/10/21 01:58:04;;;;;;;21.73;6.87;;;;;;;20.64;55.62;97390.75;4447067;32;34617;-90
2023/10/21 02:00:33;;;;;;;21.50;6.80;;;;;;;20.61;55.91;97387.47;4462798;32;33329;-89
2023/10/21 02:03:00;;;;;;;21.90;6.40;;;;;;;20.68;54.78;97383.53;4451822;32;33632;-89
2023/10/21 02:05:29;;;;;;;21.42;7.30;;;;;;;20.52;55.87;97401.13;4452146;32;33442;-89
2023/10/21 02:07:57;;;;;;;19.67;6.68;;;;;;;20.56;55.51;97402.66;4451336;32;33820;-91
2023/10/21 02:10:25;;;;;;;18.70;6.07;;;;;;;20.56;55.09;97408.75;4450870;32;34145;-91
2023/10/21 02:12:53;;;;;;;15.82;5.90;;;;;;;20.63;55.38;97415.38;4448559;32;34207;-90
2023/10/21 02:15:20;;;;;;;20.20;6.03;;;;;;;20.73;55.03;97426.28;4436262;32;34588;-90
2023/10/21 02:17:48;;;;;;;18.65;6.35;;;;;;;20.56;54.76;97418.44;4436355;32;33532;-89
2023/10/21 02:20:16;;;;;;;20.50;7.10;;;;;;;20.56;56.04;97431.63;4436106;32;33999;-90
2023/10/21 02:22:43;;;;;;;17.02;6.20;;;;;;;20.63;55.71;97431.19;4436035;32;33894;-89
2023/10/21 02:25:12;;;;;;;22.08;6.75;;;;;;;20.76;55.36;97441.91;4436429;32;33578;-89
2023/10/21 02:27:41;;;;;;;22.52;6.55;;;;;;;20.72;55.07;97450.03;4436093;32;34940;-87
2023/10/21 02:30:15;;;;;;;20.25;7.35;;;;;;;20.58;55.99;97456.94;4436309;32;34803;-91
2023/10/21 02:32:44;;;;;;;19.87;6.75;;;;;;;20.56;55.55;97450.03;4421978;32;34085;-89
2023/10/21 02:35:13;;;;;;;23.20;6.80;;;;;;;20.46;55.61;97440.94;4436115;32;33304;-89
2023/10/21 02:37:41;;;;;;;22.65;7.62;;;;;;;20.38;56.41;97452.72;4422120;32;33659;-89
2023/10/21 02:40:15;;;;;;;20.30;6.37;;;;;;;20.37;56.83;97431.75;4442656;32;34318;-88
2023/10/21 02:42:44;;;;;;;25.15;7.82;;;;;;;20.50;55.42;97434.59;4449281;32;34552;-89
2023/10/21 02:45:12;;;;;;;18.62;6.72;;;;;;;20.55;55.80;97443.09;4437221;32;33476;-89
2023/10/21 02:47:40;;;;;;;19.37;7.22;;;;;;;20.53;54.13;97439.66;4451193;32;33857;-89
2023/10/21 02:50:08;;;;;;;20.73;6.30;;;;;;;20.74;53.98;97441.13;4449826;32;35034;-88
2023/10/21 02:52:39;;;;;;;19.20;6.93;;;;;;;20.59;55.03;97444.59;4451134;32;34111;-88
2023/10/21 02:55:06;;;;;;;21.52;6.82;;;;;;;20.62;55.63;97445.28;4448048;32;33835;-89
2023/10/21 02:57:35;;;;;;;16.83;6.87;;;;;;;20.59;55.65;97442.81;4435722;32;33742;-89
2023/10/21 03:00:05;;;;;;;21.05;6.90;;;;;;;20.59;56.06;97441.97;4435622;32;35133;-88
2023/10/21 03:02:33;;;;;;;13.00;5.68;;;;;;;20.45;56.63;97449.75;4429330;32;34295;-90
2023/10/21 03:05:01;;;;;;;20.85;6.78;;;;;;;20.54;56.12;97454.56;4450655;32;34962;-91
2023/10/21 03:07:31;;;;;;;17.50;6.03;;;;;;;20.45;56.69;97463.75;4450846;32;33965;-90
2023/10/21 03:09:59;;;;;;;21.58;7.28;;;;;;;20.50;56.72;97466.19;4451203;32;35530;-91
2023/10/21 03:12:26;;;;;;;19.27;6.70;;;;;;;20.30;57.48;97467.22;4437028;32;34207;-92
2023/10/21 03:14:55;;;;;;;18.67;6.35;;;;;;;20.22;57.71;97461.50;4424324;32;34691;-90
2023/10/21 03:17:23;;;;;;;20.95;7.28;;;;;;;20.23;57.54;97469.34;4422118;32;33694;-90
2023/10/21 03:19:51;;;;;;;20.08;6.53;;;;;;;20.24;57.61;97476.28;4435719;32;33805;-91
2023/10/21 03:22:20;;;;;;;19.30;6.47;;;;;;;20.16;57.95;97479.34;4435707;32;34875;-90
2023/10/21 03:24:48;;;;;;;20.27;6.93;;;;;;;20.14;58.32;97472.44;4433408;32;33561;-91
2023/10/21 03:27:16;;;;;;;21.65;6.68;;;;;;;20.14;58.08;97470.66;4451054;32;33910;-91
2023/10/21 03:29:44;;;;;;;18.35;6.93;;;;;;;20.11;58.15;97475.22;4450876;32;34756;-89
2023/10/21 03:32:11;;;;;;;20.48;6.28;;;;;;;20.16;58.01;97474.06;4450874;32;34345;-91
2023/10/21 03:34:39;;;;;;;26.05;6.50;;;;;;;20.15;57.88;97479.41;4440078;32;33536;-90
2023/10/21 03:37:07;;;;;;;23.55;7.07;;;;;;;20.00;58.30;97467.06;4435017;32;34050;-90
2023/10/21 03:39:35;;;;;;;16.85;6.03;;;;;;;20.00;58.20;97467.06;4435369;32;34100;-90
2023/10/21 03:42:02;;;;;;;18.15;6.72;;;;;;;20.08;58.33;97472.78;4435322;32;34255;-89
2023/10/21 03:44:30;;;;;;;20.27;6.12;;;;;;;20.11;58.54;97476.06;4436025;32;34441;-89
2023/10/21 03:46:57;;;;;;;24.83;7.18;;;;;;;20.04;58.48;97484.38;4457926;32;34834;-91
2023/10/21 03:49:25;;;;;;;28.80;7.15;;;;;;;20.28;56.56;97477.84;4466360;32;33877;-92
2023/10/21 03:51:52;;;;;;;18.60;6.47;;;;;;;20.13;57.72;97483.91;4452412;32;34029;-92
2023/10/21 03:54:20;;;;;;;24.60;6.60;;;;;;;20.17;57.80;97495.97;4448929;32;34358;-90
2023/10/21 03:56:47;;;;;;;23.85;6.97;;;;;;;20.20;57.75;97501.06;4450740;32;34596;-91
2023/10/21 03:59:15;;;;;;;21.87;7.72;;;;;;;20.03;57.96;97524.75;4450727;32;35110;-91
2023/10/21 04:01:43;;;;;;;20.05;6.50;;;;;;;20.12;58.22;97529.56;4450088;32;34851;-92
2023/10/21 04:04:10;;;;;;;29.23;6.47;;;;;;;20.20;58.49;97532.66;4439062;32;33903;-90
2023/10/21 04:06:38;;;;;;;20.70;6.60;;;;;;;20.56;57.26;97540.41;4453512;32;33599;-90
2023/10/21 04:09:07;;;;;;;23.65;7.37;;;;;;;20.30;58.32;97549.63;4464818;32;34363;-91
2023/10/21 04:11:35;;;;;;;22.95;6.90;;;;;;;20.35;57.04;97537.09;4441263;32;34852;-91
2023/10/21 04:14:05;;;;;;;21.90;6.07;;;;;;;20.29;56.70;97542.69;4433013;32;34217;-89
2023/10/21 04:16:32;;;;;;;22.83;7.18;;;;;;;20.12;57.50;97548.00;4450053;32;33507;-88
2023/10/21 04:19:00;;;;;;;25.23;7.50;;;;;;;20.30;56.83;97535.62;4451402;32;35387;-88
2023/10/21 04:21:27;;;;;;;17.12;5.93;;;;;;;20.20;57.69;97551.06;4437827;32;33934;-87
2023/10/21 04:23:55;;;;;;;29.73;6.35;;;;;;;20.05;59.18;97560.59;4452002;32;33736;-89
2023/10/21 04:26:24;;;;;;;20.75;6.15;;;;;;;20.23;59.79;97557.94;4452653;32;33965;-88
2023/10/21 04:28:51;;;;;;;22.37;6.30;;;;;;;20.35;60.65;97565.22;4451179;32;34732;-86
2023/10/21 04:31:19;;;;;;;23.50;7.03;;;;;;;20.35;61.53;97562.59;4452759;32;34012;-86
2023/10/21 04:33:46;;;;;;;25.00;6.68;;;;;;;20.27;62.44;97568.25;4452349;32;33583;-87
2023/10/21 04:36:18;;;;;;;21.62;6.47;;;;;;;20.30;62.67;97578.59;4438400;32;33712;-87
2023/10/21 04:38:46;;;;;;;23.20;6.35;;;;;;;20.49;62.67;97575.00;4449070;32;33644;-88
2023/10/21 04:41:14;;;;;;;23.75;5.82;;;;;;;20.21;63.72;97580.84;4436678;32;34937;-87
2023/10/21 04:43:41;;;;;;;18.60;5.78;;;;;;;20.30;63.97;97591.75;4437667;32;33766;-87
2023/10/21 04:46:08;;;;;;;19.30;5.20;;;;;;;20.23;64.60;97595.66;4436781;32;34242;-87
2023/10/21 04:48:36;;;;;;;19.25;5.47;;;;;;;20.23;65.27;97597.41;4436345;32;34250;-87
2023/10/21 04:51:04;;;;;;;17.35;5.15;;;;;;;20.31;65.72;97606.63;4449241;32;34187;-86
2023/10/21 04:53:31;;;;;;;18.08;4.82;;;;;;;20.24;66.55;97607.87;4456155;32;34605;-85
2023/10/21 04:55:59;;;;;;;25.00;5.70;;;;;;;20.17;67.40;97619.62;4452054;32;34023;-87
2023/10/21 04:58:26;;;;;;;19.87;5.60;;;;;;;20.13;67.67;97641.78;4451211;32;34061;-87
2023/10/21 05:00:54;;;;;;;20.23;5.70;;;;;;;20.07;68.98;97634.16;4436694;32;33891;-85
2023/10/21 05:03:22;;;;;;;15.60;4.18;;;;;;;20.09;69.74;97640.22;4449873;32;34645;-84
2023/10/21 05:05:50;;;;;;;23.23;4.32;;;;;;;19.91;71.11;97636.72;4466738;32;33926;-87
2023/10/21 05:08:17;;;;;;;17.23;4.32;;;;;;;19.68;72.93;97635.22;4449667;32;34054;-87
2023/10/21 05:10:45;;;;;;;18.33;3.75;;;;;;;19.79;72.70;97638.16;4435336;32;33747;-85
2023/10/21 05:13:13;;;;;;;17.50;3.80;;;;;;;19.64;73.45;97617.88;4464993;32;34593;-86
2023/10/21 05:15:41;;;;;;;19.27;4.82;;;;;;;19.71;73.50;97621.06;4458220;32;33900;-86
2023/10/21 05:18:09;;;;;;;14.43;4.20;;;;;;;19.51;74.42;97614.09;4451573;32;34658;-87
2023/10/21 05:20:37;;;;;;;19.10;4.10;;;;;;;19.50;74.86;97610.63;4446457;32;34341;-84
2023/10/21 05:23:05;;;;;;;20.62;4.15;;;;;;;19.59;74.56;97614.59;4436778;32;33368;-86
2023/10/21 05:25:33;;;;;;;15.93;3.95;;;;;;;19.64;74.71;97620.50;4436653;32;34069;-85
2023/10/21 05:28:00;;;;;;;19.98;4.47;;;;;;;19.65;74.62;97607.28;4437156;32;33565;-87
2023/10/21 05:30:27;;;;;;;17.48;3.67;;;;;;;19.57;74.78;97601.50;4450055;32;34188;-86
2023/10/21 05:32:55;;;;;;;16.48;4.68;;;;;;;19.83;73.90;97592.37;4451677;32;33844;-88
2023/10/21 05:35:23;;;;;;;13.27;4.03;;;;;;;19.84;73.86;97615.13;4452162;32;34385;-86
2023/10/21 05:37:50;;;;;;;16.33;3.87;;;;;;;19.69;74.46;97600.94;4443485;32;34751;-89
2023/10/21 05:40:18;;;;;;;14.93;3.35;;;;;;;19.68;74.73;97608.91;4428109;32;34782;-87
2023/10/21 05:42:45;;;;;;;14.15;3.80;;;;;;;19.50;75.04;97599.25;4437443;32;33603;-87
2023/10/21 05:45:13;;;;;;;17.85;4.28;;;;;;;19.43;75.49;97607.47;4437779;32;33618;-85
2023/10/21 05:47:40;;;;;;;12.45;3.60;;;;;;;19.55;74.96;97607.78;4445951;32;35043;-84
2023/10/21 05:50:11;;;;;;;14.32;3.47;;;;;;;19.54;75.16;97622.69;4440335;32;34019;-84
2023/10/21 05:52:38;;;;;;;12.77;4.20;;;;;;;19.32;76.14;97633.41;4439566;32;33746;-85
2023/10/21 05:55:06;;;;;;;14.55;3.85;;;;;;;19.38;75.75;97659.38;4436304;32;34540;-86
2023/10/21 05:57:34;;;;;;;13.15;3.90;;;;;;;19.55;75.21;97642.81;4429873;32;34907;-86
2023/10/21 06:00:01;;;;;;;17.83;3.78;;;;;;;19.53;74.97;97656.94;4436990;32;34140;-83
2023/10/21 06:02:30;;;;;;;15.52;3.50;;;;;;;19.63;74.64;97676.66;4430528;32;34709;-88
2023/10/21 06:04:58;;;;;;;13.10;3.60;;;;;;;19.61;74.50;97679.31;4444397;32;33580;-88
2023/10/21 06:07:26;;;;;;;12.45;3.75;;;;;;;19.61;74.80;97699.50;4450848;32;34187;-84
2023/10/21 06:09:53;;;;;;;12.75;3.33;;;;;;;19.54;74.88;97711.22;4439828;32;34571;-86
2023/10/21 06:12:21;;;;;;;15.07;4.55;;;;;;;19.58;74.72;97718.03;4436355;32;33103;-84
2023/10/21 06:14:50;;;;;;;17.92;3.87;;;;;;;19.98;73.14;97722.28;4451314;32;33864;-87
2023/10/21 06:17:18;;;;;;;18.30;3.75;;;;;;;19.88;72.87;97742.91;4438442;32;33609;-86
2023/10/21 06:19:45;;;;;;;12.20;3.25;;;;;;;19.83;73.01;97744.91;4441918;32;34304;-86
2023/10/21 06:22:16;;;;;;;15.75;3.15;;;;;;;19.67;73.88;97738.69;4443800;32;33728;-86
2023/10/21 06:24:46;;;;;;;14.38;3.95;;;;;;;19.83;73.37;97741.44;4435562;32;34635;-86
2023/10/21 06:27:15;;;;;;;15.77;3.50;;;;;;;19.92;73.09;97754.13;4451677;32;33682;-85
2023/10/21 06:29:43;;;;;;;14.43;3.70;;;;;;;19.71;73.54;97752.53;4451527;32;34646;-88
2023/10/21 06:32:10;;;;;;;20.00;4.50;;;;;;;19.73;73.27;97750.69;4451730;32;34515;-86
2023/10/21 06:34:38;;;;;;;18.70;3.97;;;;;;;19.49;74.17;97755.28;4450365;32;34834;-84
2023/10/21 06:37:24;;;;;;;15.88;4.40;;;;;;;19.42;74.18;97758.16;4437243;32;34867;-87
2023/10/21 06:39:52;;;;;;;11.98;3.22;;;;;;;19.34;74.46;97767.31;4442252;32;34272;-82
2023/10/21 06:42:19;;;;;;;15.88;3.75;;;;;;;19.47;73.89;97775.50;4451377;32;34090;-85
2023/10/21 06:44:46;;;;;;;13.65;3.17;;;;;;;19.31;74.42;97778.81;4437582;32;34010;-88
2023/10/21 06:47:14;;;;;;;11.45;3.37;;;;;;;19.27;74.75;97776.41;4451441;32;34363;-87
2023/10/21 06:49:42;;;;;;;11.85;3.60;;;;;;;19.50;73.65;97788.50;4450750;32;33894;-85
2023/10/21 06:52:10;;;;;;;12.88;3.62;;;;;;;19.38;74.23;97790.75;4449912;32;34409;-86
2023/10/21 06:54:37;;;;;;;9.93;3.12;;;;;;;19.44;74.02;97795.75;4448137;32;34102;-83
2023/10/21 06:57:05;;;;;;;9.43;2.80;;;;;;;19.50;73.87;97804.28;4436102;32;34966;-87
2023/10/21 06:59:33;;;;;;;11.48;3.30;;;;;;;19.51;74.03;97808.59;4447135;32;34927;-82
2023/10/21 07:02:01;;;;;;;12.60;3.62;;;;;;;19.59;73.86;97809.12;4449642;32;33464;-84
2023/10/21 07:04:30;;;;;;;18.10;3.83;;;;;;;19.70;73.51;97806.91;4450255;32;33925;-83
2023/10/21 07:06:58;;;;;;;12.77;3.45;;;;;;;19.53;73.77;97812.03;4449445;32;34880;-85
2023/10/21 07:09:25;;;;;;;16.60;3.55;;;;;;;19.32;74.83;97812.09;4449705;32;33715;-87
2023/10/21 07:11:53;;;;;;;14.18;3.75;;;;;;;19.34;74.79;97812.00;4450033;32;33233;-89
2023/10/21 07:14:20;;;;;;;14.50;3.95;;;;;;;19.31;75.01;97812.13;4450283;32;34974;-86
2023/10/21 07:16:48;;;;;;;11.98;3.40;;;;;;;19.30;74.83;97816.53;4449006;32;33827;-84
2023/10/21 07:19:16;;;;;;;12.30;3.53;;;;;;;19.37;74.52;97823.22;4450101;32;34285;-87
2023/10/21 07:21:44;;;;;;;10.43;3.17;;;;;;;19.36;74.37;97818.06;4449914;32;34524;-86
2023/10/21 07:24:12;;;;;;;10.93;3.35;;;;;;;19.47;73.75;97807.88;4449899;32;34663;-86
2023/10/21 07:26:39;;;;;;;10.23;2.90;;;;;;;19.63;73.22;97816.00;4449820;32;34026;-85
2023/10/21 07:29:09;;;;;;;12.50;3.10;;;;;;;19.57;73.30;97826.75;4449715;32;34923;-82
2023/10/21 07:31:39;;;;;;;12.60;4.15;;;;;;;19.42;73.74;97849.31;4449608;32;33703;-86
2023/10/21 07:34:07;;;;;;;14.35;3.87;;;;;;;19.58;73.33;97865.25;4449624;32;33767;-84
2023/10/21 07:36:34;;;;;;;14.00;3.62;;;;;;;19.55;73.09;97862.78;4449556;32;34124;-82
2023/10/21 07:39:04;;;;;;;15.57;3.72;;;;;;;19.43;73.36;97854.50;4449308;32;33452;-87
2023/10/21 07:41:33;;;;;;;11.90;3.30;;;;;;;19.41;73.38;97856.34;4434322;32;34261;-87
2023/10/21 07:44:01;;;;;;;16.48;3.25;;;;;;;19.29;73.85;97861.28;4434332;32;34016;-87
2023/10/21 07:46:29;;;;;;;13.52;3.20;;;;;;;19.15;74.63;97857.47;4434236;32;33816;-85
2023/10/21 07:48:57;;;;;;;13.88;2.85;;;;;;;19.16;74.51;97864.41;4444911;32;83000;-85
2023/10/21 07:51:28;;;;;;;13.73;2.78;;;;;;;19.03;74.83;97868.50;4436744;32;33301;-88
2023/10/21 07:53:56;;;;;;;11.90;3.20;;;;;;;19.07;75.11;97872.69;4450636;32;34594;-84
2023/10/21 07:56:23;;;;;;;9.02;2.60;;;;;;;19.01;74.98;97872.09;4449769;32;33812;-87
2023/10/21 07:58:51;;;;;;;9.50;3.12;;;;;;;19.02;74.56;97882.56;4450571;32;33718;-84
2023/10/21 08:01:19;;;;;;;10.25;2.90;;;;;;;18.98;75.35;97882.72;4450560;32;33505;-86
2023/10/21 08:03:46;;;;;;;10.00;2.55;;;;;;;18.92;75.41;97899.59;4450619;32;34076;-88
2023/10/21 08:06:14;;;;;;;7.05;2.20;;;;;;;18.96;74.82;97888.91;4446034;32;34995;-86
2023/10/21 08:08:42;;;;;;;7.05;2.47;;;;;;;19.06;74.76;97899.03;4440203;32;33945;-87
2023/10/21 08:11:10;;;;;;;13.43;4.18;;;;;;;19.05;74.73;97903.41;4435066;32;33522;-88
2023/10/21 08:13:37;;;;;;;16.98;2.78;;;;;;;19.01;74.94;97906.25;4450778;32;34023;-87
2023/10/21 08:16:05;;;;;;;8.48;2.45;;;;;;;19.12;74.34;97925.03;4449792;32;33997;-86
2023/10/21 08:18:32;;;;;;;10.77;2.42;;;;;;;19.08;74.65;97936.59;4435641;32;34030;-88
2023/10/21 08:21:01;;;;;;;10.57;2.85;;;;;;;19.16;74.46;97932.72;4448678;32;33361;-85
2023/10/21 08:23:33;;;;;;;11.75;2.17;;;;;;;19.11;74.85;97932.06;4440096;32;34195;-87
2023/10/21 08:26:00;;;;;;;12.90;2.92;;;;;;;19.21;74.04;97935.19;4442956;32;34667;-85
2023/10/21 08:28:28;;;;;;;8.68;2.55;;;;;;;19.12;74.80;97949.53;4434940;32;34217;-86
2023/10/21 08:30:55;;;;;;;7.90;2.85;;;;;;;19.35;73.55;97947.72;4434787;32;33570;-87
2023/10/21 08:33:23;;;;;;;8.45;2.40;;;;;;;19.30;73.73;97960.22;4429370;32;33658;-84
2023/10/21 08:35:50;;;;;;;10.32;3.00;;;;;;;19.19;73.93;97950.16;4434756;32;34230;-88
2023/10/21 08:38:18;;;;;;;8.20;2.37;;;;;;;19.45;73.29;97947.28;4442527;32;33405;-86
2023/10/21 08:40:47;;;;;;;9.45;3.33;;;;;;;19.38;73.81;97948.44;4445419;32;34226;-88
2023/10/21 08:43:17;;;;;;;10.45;3.00;;;;;;;19.25;73.97;97936.75;4426947;32;33647;-85
2023/10/21 08:45:45;;;;;;;10.23;2.67;;;;;;;19.37;73.33;97940.66;4427254;32;34098;-85
2023/10/21 08:48:13;;;;;;;10.07;3.03;;;;;;;19.47;73.11;97936.69;4425405;32;33950;-88
2023/10/21 08:50:43;;;;;;;8.45;2.80;;;;;;;19.34;73.68;97933.72;4423858;32;33778;-83
2023/10/21 08:53:11;;;;;;;7.20;2.60;;;;;;;19.33;74.01;97945.16;4422850;32;33602;-87
2023/10/21 08:55:39;;;;;;;7.85;1.70;;;;;;;19.52;73.05;97945.25;4443258;32;33830;-88
2023/10/21 08:58:06;;;;;;;8.25;2.40;;;;;;;19.32;73.80;97951.34;4442912;32;34262;-84
2023/10/21 09:00:34;;;;;;;8.35;2.10;;;;;;;19.31;73.76;97957.50;4441971;32;33292;-83
2023/10/21 09:03:02;;;;;;;6.62;1.85;;;;;;;19.39;73.32;97965.91;4451223;32;34601;-87
2023/10/21 09:05:30;;;;;;;6.65;1.65;;;;;;;19.21;74.21;97971.97;4452197;32;33721;-86
2023/10/21 09:07:58;;;;;;;10.57;2.53;;;;;;;19.18;74.35;97985.22;4451741;32;33748;-87
2023/10/21 09:10:25;;;;;;;7.03;2.33;;;;;;;19.29;73.57;97985.62;4451385;32;33854;-86
2023/10/21 09:12:53;;;;;;;13.02;3.25;;;;;;;19.28;73.64;97978.69;4451466;32;34298;-87
2023/10/21 09:15:34;;;;;;;7.43;2.42;;;;;;;19.40;73.41;97988.69;4445032;32;34941;-87
2023/10/21 09:18:09;;;;;;;6.90;2.50;;;;;;;19.52;72.91;98002.22;4447888;32;34892;-87
2023/10/21 09:20:37;;;;;;;7.65;2.37;;;;;;;19.33;73.56;97999.50;4451218;32;33428;-87
2023/10/21 09:23:05;;;;;;;6.20;2.42;;;;;;;19.27;73.84;98011.09;4446064;32;33803;-84
2023/10/21 09:25:33;;;;;;;7.22;2.05;;;;;;;19.42;73.22;98023.62;4437560;32;33943;-87
2023/10/21 09:28:00;;;;;;;8.98;2.15;;;;;;;19.34;74.17;98009.94;4422720;32;34158;-88
2023/10/21 09:30:29;;;;;;;8.73;2.83;;;;;;;19.23;74.71;98004.28;4436918;32;33658;-87
2023/10/21 09:33:02;;;;;;;8.43;1.70;;;;;;;19.17;75.73;97996.66;4423241;32;33550;-87
2023/10/21 09:35:30;;;;;;;8.00;1.60;;;;;;;19.33;75.11;97992.47;4437185;32;34299;-88
2023/10/21 09:38:16;;;;;;;7.10;1.98;;;;;;;19.28;75.46;97994.44;4436436;32;33965;-88
2023/10/21 09:40:44;;;;;;;6.22;1.70;;;;;;;19.38;75.22;97990.50;4436578;32;33624;-88
2023/10/21 09:43:12;;;;;;;7.95;2.10;;;;;;;19.32;75.43;97989.87;4437145;32;33966;-86
2023/10/21 09:45:43;;;;;;;7.97;2.00;;;;;;;19.31;75.83;97999.56;4432518;32;34966;-88
2023/10/21 09:48:11;;;;;;;11.80;2.75;;;;;;;19.48;75.79;98000.66;4425156;32;35488;-85
2023/10/21 09:50:46;;;;;;;7.35;2.50;;;;;;;19.57;75.25;97995.84;4445345;32;33708;-88
2023/10/21 09:53:16;;;;;;;5.82;1.75;;;;;;;19.52;75.64;97986.47;4453185;32;33506;-86
2023/10/21 09:55:43;;;;;;;7.00;1.70;;;;;;;19.74;74.76;97989.06;4450221;32;34922;-85
2023/10/21 09:58:12;;;;;;;8.98;2.10;;;;;;;19.65;75.11;97998.19;4427896;32;34954;-85
2023/10/21 10:00:40;;;;;;;8.05;1.70;;;;;;;19.48;75.42;98005.91;4439715;32;34390;-85
2023/10/21 10:03:08;;;;;;;11.77;2.53;;;;;;;19.72;74.27;98004.87;4446141;32;34880;-84
2023/10/21 10:05:38;;;;;;;7.40;2.20;;;;;;;19.61;74.62;98002.69;4437812;32;35113;-86
2023/10/21 10:08:06;;;;;;;14.57;2.85;;;;;;;19.59;75.10;98006.31;4449955;32;34825;-87
2023/10/21 10:10:38;;;;;;;8.98;2.15;;;;;;;19.61;74.74;97996.56;4449447;32;33519;-86
2023/10/21 10:13:09;;;;;;;6.75;1.65;;;;;;;19.59;74.99;97993.16;4451725;32;34075;-86
2023/10/21 10:15:38;;;;;;;6.97;1.50;;;;;;;19.57;74.54;97993.22;4437919;32;34875;-85
2023/10/21 10:18:13;;;;;;;8.75;2.05;;;;;;;19.97;73.11;97977.53;4451851;32;35163;-87
2023/10/21 10:20:44;;;;;;;8.52;2.12;;;;;;;19.96;72.91;97970.53;4441786;32;33570;-85
2023/10/21 10:23:12;;;;;;;9.45;1.67;;;;;;;19.97;72.34;97956.50;4436239;32;33606;-85
2023/10/21 10:25:43;;;;;;;11.43;2.37;;;;;;;20.06;72.33;97961.34;4436204;32;35005;-84
2023/10/21 10:28:19;;;;;;;9.73;2.35;;;;;;;19.99;72.98;97967.78;4422397;32;34888;-83
2023/10/21 10:30:49;;;;;;;9.15;2.03;;;;;;;20.52;70.74;97965.37;4451404;32;34359;-84
2023/10/21 10:33:23;;;;;;;9.95;2.22;;;;;;;20.29;71.57;97955.03;4451673;32;34086;-83
2023/10/21 10:35:57;;;;;;;10.23;2.10;;;;;;;20.42;70.67;97954.41;4451574;32;34806;-85
2023/10/21 10:38:34;;;;;;;9.18;2.37;;;;;;;20.46;70.68;97949.00;4461087;32;35076;-83
2023/10/21 10:41:06;;;;;;;11.50;2.42;;;;;;;20.45;70.79;97944.63;4467185;32;33677;-87
2023/10/21 10:43:38;;;;;;;12.57;3.05;;;;;;;20.47;70.36;97932.28;4467068;32;33712;-87
2023/10/21 10:46:06;;;;;;;9.75;2.03;;;;;;;20.43;70.54;97928.94;4467275;32;33857;-88
2023/10/21 10:48:34;;;;;;;12.13;2.20;;;;;;;20.61;69.54;97938.62;4455684;32;34245;-86
2023/10/21 10:51:12;;;;;;;11.07;2.45;;;;;;;20.25;71.00;97951.69;4450632;32;34461;-85
2023/10/21 10:53:44;;;;;;;10.05;2.25;;;;;;;20.34;70.78;97960.91;4451180;32;34534;-84
2023/10/21 10:56:18;;;;;;;9.57;2.20;;;;;;;20.42;70.52;97964.94;4437062;32;33726;-87
2023/10/21 10:58:48;;;;;;;;;;;;;;;20.39;70.72;97967.69;4451541;32;34821;-86
2023/10/21 11:04:10;;;;;;;10.27;2.67;;;;;;;20.57;70.62;97970.41;4437710;32;33554;-85
2023/10/21 11:06:43;;;;;;;12.75;3.33;;;;;;;20.39;71.19;97958.94;4450289;32;34870;-86
2023/10/21 11:09:17;;;;;;;9.70;2.50;;;;;;;20.30;71.50;97967.25;4451137;32;33727;-85
2023/10/21 11:11:46;;;;;;;12.25;2.78;;;;;;;20.35;71.40;97962.66;4447238;32;33429;-85
2023/10/21 11:14:26;;;;;;;10.88;3.33;;;;;;;20.64;70.02;97980.59;4443042;32;34341;-86
2023/10/21 11:16:55;;;;;;;14.68;3.50;;;;;;;20.63;70.98;97983.31;4451477;32;34051;-85
2023/10/21 11:19:25;;;;;;;16.17;5.28;;;;;;;20.55;70.80;97994.19;4437281;32;34577;-86
2023/10/21 11:21:53;;;;;;;15.02;3.80;;;;;;;20.82;69.49;97997.31;4436900;32;34438;-87
2023/10/21 11:24:22;;;;;;;11.38;3.20;;;;;;;20.74;69.92;97988.94;4435704;32;33771;-85
2023/10/21 11:26:49;;;;;;;14.25;4.28;;;;;;;20.81;70.19;97986.88;4435984;32;34503;-88
2023/10/21 11:29:17;;;;;;;15.05;4.30;;;;;;;20.83;70.52;97985.84;4435622;32;34871;-87
2023/10/21 11:31:45;;;;;;;14.20;3.10;;;;;;;21.08;69.28;97995.22;4447703;32;33620;-87
2023/10/21 11:34:18;;;;;;;11.77;2.72;;;;;;;21.21;68.61;98001.59;4435596;32;32413;-87
2023/10/21 11:36:48;;;;;;;12.80;2.72;;;;;;;21.09;69.27;98010.09;4421766;32;34052;-87